sensor_id;sensor_type;location;lat;lon;timestamp;P1;durP1;ratioP1;P2;durP2;ratioP2
19026;SDS011;9646;52.034;5.554;2023-03-02T00:01:19;21.23;;;12.60;;
19026;SDS011;9646;52.034;5.554;2023-03-02T00:06:49;21.15;;;12.43;;
19026;SDS011;9646;52.034;5.554;2023-03-02T00:09:17;19.10;;;11.82;;
19026;SDS011;9646;52.034;5.554;2023-03-02T00:11:44;18.98;;;12.25;;
19026;SDS011;9646;52.034;5.554;2023-03-02T00:14:11;20.38;;;12.60;;
19026;SDS011;9646;52.034;5.554;2023-03-02T00:16:40;19.02;;;12.65;;
19026;SDS011;9646;52.034;5.554;2023-03-02T00:19:07;17.60;;;11.45;;
19026;SDS011;9646;52.034;5.554;2023-03-02T00:21:34;19.63;;;12.10;;
19026;SDS011;9646;52.034;5.554;2023-03-02T00:24:01;21.05;;;12.15;;
19026;SDS011;9646;52.034;5.554;2023-03-02T00:26:31;16.95;;;10.82;;
19026;SDS011;9646;52.034;5.554;2023-03-02T00:28:58;19.27;;;11.50;;
19026;SDS011;9646;52.034;5.554;2023-03-02T00:31:25;20.25;;;12.65;;
19026;SDS011;9646;52.034;5.554;2023-03-02T00:33:54;20.60;;;12.57;;
19026;SDS011;9646;52.034;5.554;2023-03-02T00:36:21;20.17;;;11.82;;
19026;SDS011;9646;52.034;5.554;2023-03-02T00:38:48;20.10;;;12.40;;
19026;SDS011;9646;52.034;5.554;2023-03-02T00:41:17;20.30;;;11.95;;
19026;SDS011;9646;52.034;5.554;2023-03-02T00:43:45;21.20;;;12.35;;
19026;SDS011;9646;52.034;5.554;2023-03-02T00:46:13;19.35;;;12.25;;
19026;SDS011;9646;52.034;5.554;2023-03-02T00:48:41;20.23;;;11.88;;
19026;SDS011;9646;52.034;5.554;2023-03-02T00:51:10;19.40;;;11.98;;
19026;SDS011;9646;52.034;5.554;2023-03-02T00:53:37;20.92;;;11.82;;
19026;SDS011;9646;52.034;5.554;2023-03-02T00:56:05;20.27;;;11.77;;
19026;SDS011;9646;52.034;5.554;2023-03-02T00:58:32;19.15;;;12.02;;
19026;SDS011;9646;52.034;5.554;2023-03-02T01:01:03;20.20;;;11.93;;
19026;SDS011;9646;52.034;5.554;2023-03-02T01:03:31;23.17;;;14.35;;
19026;SDS011;9646;52.034;5.554;2023-03-02T01:05:58;20.27;;;12.43;;
19026;SDS011;9646;52.034;5.554;2023-03-02T01:08:26;21.77;;;13.20;;
19026;SDS011;9646;52.034;5.554;2023-03-02T01:10:54;20.25;;;12.45;;
19026;SDS011;9646;52.034;5.554;2023-03-02T01:13:21;21.20;;;12.95;;
19026;SDS011;9646;52.034;5.554;2023-03-02T01:15:48;20.33;;;12.75;;
19026;SDS011;9646;52.034;5.554;2023-03-02T01:18:15;20.95;;;13.43;;
19026;SDS011;9646;52.034;5.554;2023-03-02T01:20:42;18.70;;;11.90;;
19026;SDS011;9646;52.034;5.554;2023-03-02T01:23:09;20.20;;;12.98;;
19026;SDS011;9646;52.034;5.554;2023-03-02T01:25:38;20.67;;;13.07;;
19026;SDS011;9646;52.034;5.554;2023-03-02T01:28:05;25.33;;;13.30;;
19026;SDS011;9646;52.034;5.554;2023-03-02T01:30:32;20.25;;;12.75;;
19026;SDS011;9646;52.034;5.554;2023-03-02T01:32:59;20.65;;;12.80;;
19026;SDS011;9646;52.034;5.554;2023-03-02T01:35:26;21.42;;;12.73;;
19026;SDS011;9646;52.034;5.554;2023-03-02T01:37:53;19.80;;;12.98;;
19026;SDS011;9646;52.034;5.554;2023-03-02T01:40:20;20.02;;;12.63;;
19026;SDS011;9646;52.034;5.554;2023-03-02T01:42:51;19.90;;;12.32;;
19026;SDS011;9646;52.034;5.554;2023-03-02T01:48:10;19.35;;;12.48;;
19026;SDS011;9646;52.034;5.554;2023-03-02T01:50:38;21.48;;;12.15;;
19026;SDS011;9646;52.034;5.554;2023-03-02T01:53:05;21.20;;;12.80;;
19026;SDS011;9646;52.034;5.554;2023-03-02T01:55:33;21.67;;;12.75;;
19026;SDS011;9646;52.034;5.554;2023-03-02T01:58:05;20.13;;;13.05;;
19026;SDS011;9646;52.034;5.554;2023-03-02T02:00:33;20.70;;;12.95;;
19026;SDS011;9646;52.034;5.554;2023-03-02T02:03:02;21.00;;;12.82;;
19026;SDS011;9646;52.034;5.554;2023-03-02T02:05:34;20.02;;;12.55;;
19026;SDS011;9646;52.034;5.554;2023-03-02T02:08:02;20.52;;;13.05;;
19026;SDS011;9646;52.034;5.554;2023-03-02T02:10:30;24.85;;;13.23;;
19026;SDS011;9646;52.034;5.554;2023-03-02T02:12:57;20.92;;;12.40;;
19026;SDS011;9646;52.034;5.554;2023-03-02T02:15:26;22.40;;;13.32;;
19026;SDS011;9646;52.034;5.554;2023-03-02T02:17:53;21.98;;;13.27;;
19026;SDS011;9646;52.034;5.554;2023-03-02T02:20:22;19.77;;;12.10;;
19026;SDS011;9646;52.034;5.554;2023-03-02T02:22:54;21.85;;;12.95;;
19026;SDS011;9646;52.034;5.554;2023-03-02T02:25:26;20.25;;;12.35;;
19026;SDS011;9646;52.034;5.554;2023-03-02T02:27:59;22.38;;;12.93;;
19026;SDS011;9646;52.034;5.554;2023-03-02T02:30:28;20.30;;;13.77;;
19026;SDS011;9646;52.034;5.554;2023-03-02T02:32:55;19.10;;;12.07;;
19026;SDS011;9646;52.034;5.554;2023-03-02T02:35:23;21.17;;;13.60;;
19026;SDS011;9646;52.034;5.554;2023-03-02T02:37:51;17.65;;;11.48;;
19026;SDS011;9646;52.034;5.554;2023-03-02T02:40:20;20.35;;;13.30;;
19026;SDS011;9646;52.034;5.554;2023-03-02T02:42:48;20.13;;;13.20;;
19026;SDS011;9646;52.034;5.554;2023-03-02T02:45:19;22.27;;;13.65;;
19026;SDS011;9646;52.034;5.554;2023-03-02T02:47:47;22.35;;;13.07;;
19026;SDS011;9646;52.034;5.554;2023-03-02T02:50:16;21.20;;;13.27;;
19026;SDS011;9646;52.034;5.554;2023-03-02T02:52:43;21.25;;;13.27;;
19026;SDS011;9646;52.034;5.554;2023-03-02T02:55:12;22.65;;;13.52;;
19026;SDS011;9646;52.034;5.554;2023-03-02T02:57:40;19.27;;;11.98;;
19026;SDS011;9646;52.034;5.554;2023-03-02T03:00:09;19.17;;;11.55;;
19026;SDS011;9646;52.034;5.554;2023-03-02T03:02:43;19.27;;;11.88;;
19026;SDS011;9646;52.034;5.554;2023-03-02T03:05:12;19.75;;;12.65;;
19026;SDS011;9646;52.034;5.554;2023-03-02T03:07:39;19.17;;;12.52;;
19026;SDS011;9646;52.034;5.554;2023-03-02T03:10:08;18.85;;;11.82;;
19026;SDS011;9646;52.034;5.554;2023-03-02T03:12:36;20.80;;;12.98;;
19026;SDS011;9646;52.034;5.554;2023-03-02T03:15:04;19.23;;;12.05;;
19026;SDS011;9646;52.034;5.554;2023-03-02T03:17:32;17.23;;;11.23;;
19026;SDS011;9646;52.034;5.554;2023-03-02T03:20:00;18.38;;;11.77;;
19026;SDS011;9646;52.034;5.554;2023-03-02T03:22:32;23.35;;;13.00;;
19026;SDS011;9646;52.034;5.554;2023-03-02T03:24:59;21.00;;;13.60;;
19026;SDS011;9646;52.034;5.554;2023-03-02T03:27:27;20.48;;;12.77;;
19026;SDS011;9646;52.034;5.554;2023-03-02T03:29:54;18.23;;;11.40;;
19026;SDS011;9646;52.034;5.554;2023-03-02T03:32:21;19.02;;;12.77;;
19026;SDS011;9646;52.034;5.554;2023-03-02T03:34:48;20.25;;;12.90;;
19026;SDS011;9646;52.034;5.554;2023-03-02T03:37:18;20.15;;;13.23;;
19026;SDS011;9646;52.034;5.554;2023-03-02T03:39:45;19.70;;;11.20;;
19026;SDS011;9646;52.034;5.554;2023-03-02T03:42:13;18.83;;;12.35;;
19026;SDS011;9646;52.034;5.554;2023-03-02T03:44:41;21.23;;;12.80;;
19026;SDS011;9646;52.034;5.554;2023-03-02T03:47:08;20.30;;;12.75;;
19026;SDS011;9646;52.034;5.554;2023-03-02T03:49:35;18.67;;;11.52;;
19026;SDS011;9646;52.034;5.554;2023-03-02T03:52:02;17.33;;;11.82;;
19026;SDS011;9646;52.034;5.554;2023-03-02T03:54:30;16.70;;;11.45;;
19026;SDS011;9646;52.034;5.554;2023-03-02T03:56:57;20.92;;;11.75;;
19026;SDS011;9646;52.034;5.554;2023-03-02T03:59:25;17.92;;;11.60;;
19026;SDS011;9646;52.034;5.554;2023-03-02T04:01:53;18.00;;;11.70;;
19026;SDS011;9646;52.034;5.554;2023-03-02T04:04:21;17.42;;;11.40;;
19026;SDS011;9646;52.034;5.554;2023-03-02T04:06:49;18.30;;;11.52;;
19026;SDS011;9646;52.034;5.554;2023-03-02T04:09:16;17.55;;;11.27;;
19026;SDS011;9646;52.034;5.554;2023-03-02T04:11:45;20.50;;;13.23;;
19026;SDS011;9646;52.034;5.554;2023-03-02T04:14:13;18.65;;;11.27;;
19026;SDS011;9646;52.034;5.554;2023-03-02T04:16:41;24.45;;;12.50;;
19026;SDS011;9646;52.034;5.554;2023-03-02T04:19:08;18.67;;;11.25;;
19026;SDS011;9646;52.034;5.554;2023-03-02T04:21:36;17.73;;;10.68;;
19026;SDS011;9646;52.034;5.554;2023-03-02T04:24:04;16.20;;;11.23;;
19026;SDS011;9646;52.034;5.554;2023-03-02T04:26:31;18.73;;;11.60;;
19026;SDS011;9646;52.034;5.554;2023-03-02T04:29:00;17.23;;;10.90;;
19026;SDS011;9646;52.034;5.554;2023-03-02T04:31:27;17.98;;;11.57;;
19026;SDS011;9646;52.034;5.554;2023-03-02T04:33:55;18.48;;;10.95;;
19026;SDS011;9646;52.034;5.554;2023-03-02T04:36:23;17.15;;;10.57;;
19026;SDS011;9646;52.034;5.554;2023-03-02T04:38:50;16.33;;;11.07;;
19026;SDS011;9646;52.034;5.554;2023-03-02T04:41:17;19.05;;;11.60;;
19026;SDS011;9646;52.034;5.554;2023-03-02T04:43:44;16.80;;;10.68;;
19026;SDS011;9646;52.034;5.554;2023-03-02T04:46:14;16.58;;;11.13;;
19026;SDS011;9646;52.034;5.554;2023-03-02T04:48:41;19.80;;;11.38;;
19026;SDS011;9646;52.034;5.554;2023-03-02T04:51:09;18.40;;;11.02;;
19026;SDS011;9646;52.034;5.554;2023-03-02T04:53:41;16.42;;;10.52;;
19026;SDS011;9646;52.034;5.554;2023-03-02T04:56:09;15.32;;;9.95;;
19026;SDS011;9646;52.034;5.554;2023-03-02T04:58:36;18.25;;;11.60;;
19026;SDS011;9646;52.034;5.554;2023-03-02T05:01:03;16.73;;;10.23;;
19026;SDS011;9646;52.034;5.554;2023-03-02T05:03:32;17.23;;;10.10;;
19026;SDS011;9646;52.034;5.554;2023-03-02T05:06:00;15.57;;;10.93;;
19026;SDS011;9646;52.034;5.554;2023-03-02T05:08:28;17.17;;;10.00;;
19026;SDS011;9646;52.034;5.554;2023-03-02T05:10:56;15.27;;;10.80;;
19026;SDS011;9646;52.034;5.554;2023-03-02T05:13:23;19.70;;;11.15;;
19026;SDS011;9646;52.034;5.554;2023-03-02T05:15:50;17.75;;;10.80;;
19026;SDS011;9646;52.034;5.554;2023-03-02T05:18:17;16.90;;;11.07;;
19026;SDS011;9646;52.034;5.554;2023-03-02T05:20:46;16.60;;;10.50;;
19026;SDS011;9646;52.034;5.554;2023-03-02T05:23:14;16.42;;;10.57;;
19026;SDS011;9646;52.034;5.554;2023-03-02T05:25:48;15.82;;;11.43;;
19026;SDS011;9646;52.034;5.554;2023-03-02T05:28:15;18.52;;;10.18;;
19026;SDS011;9646;52.034;5.554;2023-03-02T05:30:42;14.32;;;9.35;;
19026;SDS011;9646;52.034;5.554;2023-03-02T05:33:09;15.80;;;10.63;;
19026;SDS011;9646;52.034;5.554;2023-03-02T05:35:37;17.85;;;11.35;;
19026;SDS011;9646;52.034;5.554;2023-03-02T05:38:05;20.25;;;12.00;;
19026;SDS011;9646;52.034;5.554;2023-03-02T05:40:32;17.77;;;11.73;;
19026;SDS011;9646;52.034;5.554;2023-03-02T05:43:00;18.65;;;11.63;;
19026;SDS011;9646;52.034;5.554;2023-03-02T05:45:28;18.38;;;11.07;;
19026;SDS011;9646;52.034;5.554;2023-03-02T05:47:55;15.75;;;10.15;;
19026;SDS011;9646;52.034;5.554;2023-03-02T05:50:22;16.67;;;10.65;;
19026;SDS011;9646;52.034;5.554;2023-03-02T05:52:49;14.95;;;9.80;;
19026;SDS011;9646;52.034;5.554;2023-03-02T05:55:18;18.13;;;11.57;;
19026;SDS011;9646;52.034;5.554;2023-03-02T05:57:45;15.52;;;10.20;;
19026;SDS011;9646;52.034;5.554;2023-03-02T06:00:14;18.80;;;11.52;;
19026;SDS011;9646;52.034;5.554;2023-03-02T06:02:41;17.48;;;11.25;;
19026;SDS011;9646;52.034;5.554;2023-03-02T06:05:09;20.67;;;12.88;;
19026;SDS011;9646;52.034;5.554;2023-03-02T06:07:36;18.00;;;10.68;;
19026;SDS011;9646;52.034;5.554;2023-03-02T06:10:04;17.65;;;10.75;;
19026;SDS011;9646;52.034;5.554;2023-03-02T06:12:33;19.83;;;10.98;;
19026;SDS011;9646;52.034;5.554;2023-03-02T06:15:00;17.38;;;11.18;;
19026;SDS011;9646;52.034;5.554;2023-03-02T06:17:27;15.63;;;9.88;;
19026;SDS011;9646;52.034;5.554;2023-03-02T06:19:54;18.55;;;10.65;;
19026;SDS011;9646;52.034;5.554;2023-03-02T06:22:21;16.05;;;9.52;;
19026;SDS011;9646;52.034;5.554;2023-03-02T06:24:48;13.38;;;8.60;;
19026;SDS011;9646;52.034;5.554;2023-03-02T06:27:15;15.55;;;8.68;;
19026;SDS011;9646;52.034;5.554;2023-03-02T06:29:44;12.23;;;8.10;;
19026;SDS011;9646;52.034;5.554;2023-03-02T06:32:11;14.93;;;8.77;;
19026;SDS011;9646;52.034;5.554;2023-03-02T06:34:38;13.90;;;9.15;;
19026;SDS011;9646;52.034;5.554;2023-03-02T06:37:05;20.25;;;9.88;;
19026;SDS011;9646;52.034;5.554;2023-03-02T06:39:32;15.68;;;9.73;;
19026;SDS011;9646;52.034;5.554;2023-03-02T06:41:59;14.15;;;9.13;;
19026;SDS011;9646;52.034;5.554;2023-03-02T06:44:26;15.23;;;9.70;;
19026;SDS011;9646;52.034;5.554;2023-03-02T06:46:55;15.98;;;9.50;;
19026;SDS011;9646;52.034;5.554;2023-03-02T06:49:22;15.50;;;9.32;;
19026;SDS011;9646;52.034;5.554;2023-03-02T06:51:49;15.80;;;9.80;;
19026;SDS011;9646;52.034;5.554;2023-03-02T06:54:16;16.42;;;9.55;;
19026;SDS011;9646;52.034;5.554;2023-03-02T06:56:43;17.48;;;10.50;;
19026;SDS011;9646;52.034;5.554;2023-03-02T06:59:10;17.30;;;10.00;;
19026;SDS011;9646;52.034;5.554;2023-03-02T07:01:37;16.70;;;10.13;;
19026;SDS011;9646;52.034;5.554;2023-03-02T07:04:05;16.25;;;10.05;;
19026;SDS011;9646;52.034;5.554;2023-03-02T07:06:32;15.63;;;10.40;;
19026;SDS011;9646;52.034;5.554;2023-03-02T07:09:00;17.98;;;11.10;;
19026;SDS011;9646;52.034;5.554;2023-03-02T07:11:27;18.58;;;11.18;;
19026;SDS011;9646;52.034;5.554;2023-03-02T07:13:54;17.17;;;10.95;;
19026;SDS011;9646;52.034;5.554;2023-03-02T07:16:21;16.80;;;10.20;;
19026;SDS011;9646;52.034;5.554;2023-03-02T07:18:48;20.70;;;11.27;;
19026;SDS011;9646;52.034;5.554;2023-03-02T07:21:17;16.30;;;10.18;;
19026;SDS011;9646;52.034;5.554;2023-03-02T07:23:44;16.05;;;10.13;;
19026;SDS011;9646;52.034;5.554;2023-03-02T07:26:11;15.93;;;9.98;;
19026;SDS011;9646;52.034;5.554;2023-03-02T07:28:39;17.80;;;10.13;;
19026;SDS011;9646;52.034;5.554;2023-03-02T07:31:07;18.20;;;10.30;;
19026;SDS011;9646;52.034;5.554;2023-03-02T07:33:34;17.52;;;10.40;;
19026;SDS011;9646;52.034;5.554;2023-03-02T07:36:02;18.95;;;12.07;;
19026;SDS011;9646;52.034;5.554;2023-03-02T07:38:30;18.77;;;11.27;;
19026;SDS011;9646;52.034;5.554;2023-03-02T07:40:57;17.55;;;10.32;;
19026;SDS011;9646;52.034;5.554;2023-03-02T07:43:24;16.65;;;10.13;;
19026;SDS011;9646;52.034;5.554;2023-03-02T07:45:53;17.25;;;10.52;;
19026;SDS011;9646;52.034;5.554;2023-03-02T07:48:20;15.52;;;9.88;;
19026;SDS011;9646;52.034;5.554;2023-03-02T07:50:48;17.23;;;10.45;;
19026;SDS011;9646;52.034;5.554;2023-03-02T07:53:15;16.92;;;10.30;;
19026;SDS011;9646;52.034;5.554;2023-03-02T07:55:43;19.95;;;12.40;;
19026;SDS011;9646;52.034;5.554;2023-03-02T07:58:10;19.05;;;10.57;;
19026;SDS011;9646;52.034;5.554;2023-03-02T08:00:37;17.35;;;10.32;;
19026;SDS011;9646;52.034;5.554;2023-03-02T08:03:04;22.35;;;13.32;;
19026;SDS011;9646;52.034;5.554;2023-03-02T08:05:31;18.20;;;10.68;;
19026;SDS011;9646;52.034;5.554;2023-03-02T08:07:58;19.08;;;11.65;;
19026;SDS011;9646;52.034;5.554;2023-03-02T08:10:25;22.60;;;13.00;;
19026;SDS011;9646;52.034;5.554;2023-03-02T08:12:53;22.23;;;12.25;;
19026;SDS011;9646;52.034;5.554;2023-03-02T08:15:21;18.42;;;10.55;;
19026;SDS011;9646;52.034;5.554;2023-03-02T08:17:48;14.93;;;9.38;;
19026;SDS011;9646;52.034;5.554;2023-03-02T08:20:15;17.90;;;9.88;;
19026;SDS011;9646;52.034;5.554;2023-03-02T08:22:42;18.02;;;10.82;;
19026;SDS011;9646;52.034;5.554;2023-03-02T08:25:09;16.95;;;10.88;;
19026;SDS011;9646;52.034;5.554;2023-03-02T08:27:36;15.38;;;8.82;;
19026;SDS011;9646;52.034;5.554;2023-03-02T08:30:06;20.05;;;10.27;;
19026;SDS011;9646;52.034;5.554;2023-03-02T08:32:36;18.70;;;10.38;;
19026;SDS011;9646;52.034;5.554;2023-03-02T08:35:03;14.43;;;8.15;;
19026;SDS011;9646;52.034;5.554;2023-03-02T08:37:31;19.10;;;10.32;;
19026;SDS011;9646;52.034;5.554;2023-03-02T08:39:58;20.75;;;11.50;;
19026;SDS011;9646;52.034;5.554;2023-03-02T08:42:25;16.13;;;9.43;;
19026;SDS011;9646;52.034;5.554;2023-03-02T08:44:52;17.65;;;10.82;;
19026;SDS011;9646;52.034;5.554;2023-03-02T08:47:20;15.98;;;8.48;;
19026;SDS011;9646;52.034;5.554;2023-03-02T08:49:47;18.73;;;10.57;;
19026;SDS011;9646;52.034;5.554;2023-03-02T08:52:15;15.82;;;9.15;;
19026;SDS011;9646;52.034;5.554;2023-03-02T08:54:42;13.88;;;8.30;;
19026;SDS011;9646;52.034;5.554;2023-03-02T08:57:09;16.25;;;8.55;;
19026;SDS011;9646;52.034;5.554;2023-03-02T08:59:36;14.80;;;8.88;;
19026;SDS011;9646;52.034;5.554;2023-03-02T09:02:03;18.38;;;10.32;;
19026;SDS011;9646;52.034;5.554;2023-03-02T09:04:32;14.48;;;8.63;;
19026;SDS011;9646;52.034;5.554;2023-03-02T09:06:59;16.00;;;9.57;;
19026;SDS011;9646;52.034;5.554;2023-03-02T09:09:26;14.93;;;9.07;;
19026;SDS011;9646;52.034;5.554;2023-03-02T09:11:53;15.30;;;8.90;;
19026;SDS011;9646;52.034;5.554;2023-03-02T09:14:20;15.48;;;9.00;;
19026;SDS011;9646;52.034;5.554;2023-03-02T09:16:48;15.50;;;9.48;;
19026;SDS011;9646;52.034;5.554;2023-03-02T09:19:17;15.35;;;9.02;;
19026;SDS011;9646;52.034;5.554;2023-03-02T09:21:45;13.30;;;8.45;;
19026;SDS011;9646;52.034;5.554;2023-03-02T09:24:12;15.38;;;9.35;;
19026;SDS011;9646;52.034;5.554;2023-03-02T09:26:39;15.32;;;8.43;;
19026;SDS011;9646;52.034;5.554;2023-03-02T09:29:06;15.57;;;8.60;;
19026;SDS011;9646;52.034;5.554;2023-03-02T09:31:34;13.85;;;7.30;;
19026;SDS011;9646;52.034;5.554;2023-03-02T09:34:02;15.05;;;7.95;;
19026;SDS011;9646;52.034;5.554;2023-03-02T09:36:29;13.43;;;8.55;;
19026;SDS011;9646;52.034;5.554;2023-03-02T09:38:58;16.58;;;9.10;;
19026;SDS011;9646;52.034;5.554;2023-03-02T09:41:29;15.02;;;8.35;;
19026;SDS011;9646;52.034;5.554;2023-03-02T09:44:00;15.70;;;8.40;;
19026;SDS011;9646;52.034;5.554;2023-03-02T09:46:29;13.07;;;8.05;;
19026;SDS011;9646;52.034;5.554;2023-03-02T09:49:05;15.98;;;8.98;;
19026;SDS011;9646;52.034;5.554;2023-03-02T09:51:35;12.90;;;7.47;;
19026;SDS011;9646;52.034;5.554;2023-03-02T09:54:05;12.40;;;7.55;;
19026;SDS011;9646;52.034;5.554;2023-03-02T09:56:35;12.52;;;6.88;;
19026;SDS011;9646;52.034;5.554;2023-03-02T09:59:04;12.55;;;7.53;;
19026;SDS011;9646;52.034;5.554;2023-03-02T10:01:34;15.90;;;8.00;;
19026;SDS011;9646;52.034;5.554;2023-03-02T10:04:05;12.13;;;7.57;;
19026;SDS011;9646;52.034;5.554;2023-03-02T10:06:35;13.50;;;7.82;;
19026;SDS011;9646;52.034;5.554;2023-03-02T10:09:02;11.18;;;7.10;;
19026;SDS011;9646;52.034;5.554;2023-03-02T10:11:34;12.48;;;7.25;;
19026;SDS011;9646;52.034;5.554;2023-03-02T10:14:05;11.95;;;7.63;;
19026;SDS011;9646;52.034;5.554;2023-03-02T10:16:34;11.63;;;6.90;;
19026;SDS011;9646;52.034;5.554;2023-03-02T10:19:05;13.25;;;7.70;;
19026;SDS011;9646;52.034;5.554;2023-03-02T10:21:35;11.98;;;7.82;;
19026;SDS011;9646;52.034;5.554;2023-03-02T10:24:06;10.50;;;6.15;;
19026;SDS011;9646;52.034;5.554;2023-03-02T10:26:38;12.27;;;7.15;;
19026;SDS011;9646;52.034;5.554;2023-03-02T10:29:20;13.80;;;7.90;;
19026;SDS011;9646;52.034;5.554;2023-03-02T10:31:49;10.55;;;6.65;;
19026;SDS011;9646;52.034;5.554;2023-03-02T10:34:19;12.07;;;7.13;;
19026;SDS011;9646;52.034;5.554;2023-03-02T10:36:48;11.50;;;6.45;;
19026;SDS011;9646;52.034;5.554;2023-03-02T10:39:16;10.43;;;5.25;;
19026;SDS011;9646;52.034;5.554;2023-03-02T10:41:45;12.75;;;6.47;;
19026;SDS011;9646;52.034;5.554;2023-03-02T10:44:14;9.90;;;6.53;;
19026;SDS011;9646;52.034;5.554;2023-03-02T10:46:45;11.77;;;6.97;;
19026;SDS011;9646;52.034;5.554;2023-03-02T10:49:25;12.18;;;6.97;;
19026;SDS011;9646;52.034;5.554;2023-03-02T10:51:57;12.68;;;7.43;;
19026;SDS011;9646;52.034;5.554;2023-03-02T10:54:24;9.77;;;5.97;;
19026;SDS011;9646;52.034;5.554;2023-03-02T10:56:54;11.15;;;6.15;;
19026;SDS011;9646;52.034;5.554;2023-03-02T10:59:30;11.48;;;6.53;;
19026;SDS011;9646;52.034;5.554;2023-03-02T11:01:58;10.05;;;5.47;;
19026;SDS011;9646;52.034;5.554;2023-03-02T11:04:26;11.40;;;6.32;;
19026;SDS011;9646;52.034;5.554;2023-03-02T11:06:54;10.40;;;6.03;;
19026;SDS011;9646;52.034;5.554;2023-03-02T11:09:21;10.52;;;6.60;;
19026;SDS011;9646;52.034;5.554;2023-03-02T11:11:48;9.95;;;5.38;;
19026;SDS011;9646;52.034;5.554;2023-03-02T11:14:18;8.52;;;5.35;;
19026;SDS011;9646;52.034;5.554;2023-03-02T11:16:47;10.98;;;6.20;;
19026;SDS011;9646;52.034;5.554;2023-03-02T11:19:15;9.77;;;5.80;;
19026;SDS011;9646;52.034;5.554;2023-03-02T11:21:44;12.55;;;7.18;;
19026;SDS011;9646;52.034;5.554;2023-03-02T11:24:14;7.55;;;4.80;;
19026;SDS011;9646;52.034;5.554;2023-03-02T11:26:43;9.75;;;5.90;;
19026;SDS011;9646;52.034;5.554;2023-03-02T11:29:13;12.85;;;6.30;;
19026;SDS011;9646;52.034;5.554;2023-03-02T11:31:47;10.82;;;6.32;;
19026;SDS011;9646;52.034;5.554;2023-03-02T11:37:00;10.20;;;5.78;;
19026;SDS011;9646;52.034;5.554;2023-03-02T11:39:31;10.48;;;6.43;;
19026;SDS011;9646;52.034;5.554;2023-03-02T11:42:02;16.38;;;7.68;;
19026;SDS011;9646;52.034;5.554;2023-03-02T11:44:29;13.85;;;6.85;;
19026;SDS011;9646;52.034;5.554;2023-03-02T11:46:59;13.30;;;6.78;;
19026;SDS011;9646;52.034;5.554;2023-03-02T11:49:31;15.50;;;7.00;;
19026;SDS011;9646;52.034;5.554;2023-03-02T11:52:01;18.08;;;8.18;;
19026;SDS011;9646;52.034;5.554;2023-03-02T11:54:30;18.98;;;6.75;;
19026;SDS011;9646;52.034;5.554;2023-03-02T11:56:58;15.38;;;7.20;;
19026;SDS011;9646;52.034;5.554;2023-03-02T11:59:26;14.25;;;7.32;;
19026;SDS011;9646;52.034;5.554;2023-03-02T12:01:54;15.68;;;8.02;;
19026;SDS011;9646;52.034;5.554;2023-03-02T12:04:26;14.10;;;6.43;;
19026;SDS011;9646;52.034;5.554;2023-03-02T12:06:53;17.58;;;7.82;;
19026;SDS011;9646;52.034;5.554;2023-03-02T12:09:25;13.95;;;7.18;;
19026;SDS011;9646;52.034;5.554;2023-03-02T12:11:56;12.55;;;7.15;;
19026;SDS011;9646;52.034;5.554;2023-03-02T12:14:25;14.90;;;7.82;;
19026;SDS011;9646;52.034;5.554;2023-03-02T12:17:02;13.70;;;7.10;;
19026;SDS011;9646;52.034;5.554;2023-03-02T12:19:38;12.80;;;6.32;;
19026;SDS011;9646;52.034;5.554;2023-03-02T12:22:06;12.93;;;6.63;;
19026;SDS011;9646;52.034;5.554;2023-03-02T12:24:37;12.65;;;6.63;;
19026;SDS011;9646;52.034;5.554;2023-03-02T12:27:06;11.50;;;5.60;;
19026;SDS011;9646;52.034;5.554;2023-03-02T12:29:38;12.90;;;6.78;;
19026;SDS011;9646;52.034;5.554;2023-03-02T12:32:10;12.13;;;5.60;;
19026;SDS011;9646;52.034;5.554;2023-03-02T12:34:39;12.93;;;6.43;;
19026;SDS011;9646;52.034;5.554;2023-03-02T12:37:13;11.57;;;7.45;;
19026;SDS011;9646;52.034;5.554;2023-03-02T12:45:24;11.25;;;5.68;;
19026;SDS011;9646;52.034;5.554;2023-03-02T12:47:55;11.82;;;5.57;;
19026;SDS011;9646;52.034;5.554;2023-03-02T12:50:26;9.52;;;5.93;;
19026;SDS011;9646;52.034;5.554;2023-03-02T12:52:55;9.80;;;5.68;;
19026;SDS011;9646;52.034;5.554;2023-03-02T12:55:23;7.70;;;5.43;;
19026;SDS011;9646;52.034;5.554;2023-03-02T12:57:51;8.90;;;4.93;;
19026;SDS011;9646;52.034;5.554;2023-03-02T13:00:19;12.18;;;5.90;;
19026;SDS011;9646;52.034;5.554;2023-03-02T13:02:47;9.30;;;5.38;;
19026;SDS011;9646;52.034;5.554;2023-03-02T13:05:16;8.77;;;5.55;;
19026;SDS011;9646;52.034;5.554;2023-03-02T13:07:46;7.20;;;4.75;;
19026;SDS011;9646;52.034;5.554;2023-03-02T13:10:20;9.75;;;5.43;;
19026;SDS011;9646;52.034;5.554;2023-03-02T13:12:47;9.07;;;5.63;;
19026;SDS011;9646;52.034;5.554;2023-03-02T13:15:15;9.70;;;5.88;;
19026;SDS011;9646;52.034;5.554;2023-03-02T13:17:43;8.43;;;5.50;;
19026;SDS011;9646;52.034;5.554;2023-03-02T13:20:12;7.82;;;5.43;;
19026;SDS011;9646;52.034;5.554;2023-03-02T13:22:39;9.93;;;5.05;;
19026;SDS011;9646;52.034;5.554;2023-03-02T13:25:24;9.00;;;5.72;;
19026;SDS011;9646;52.034;5.554;2023-03-02T13:27:52;9.57;;;5.32;;
19026;SDS011;9646;52.034;5.554;2023-03-02T13:30:24;8.60;;;5.47;;
19026;SDS011;9646;52.034;5.554;2023-03-02T13:32:52;10.07;;;6.07;;
19026;SDS011;9646;52.034;5.554;2023-03-02T13:35:22;9.50;;;5.22;;
19026;SDS011;9646;52.034;5.554;2023-03-02T13:37:54;7.28;;;4.57;;
19026;SDS011;9646;52.034;5.554;2023-03-02T13:43:21;7.15;;;4.28;;
19026;SDS011;9646;52.034;5.554;2023-03-02T13:45:49;9.70;;;4.15;;
19026;SDS011;9646;52.034;5.554;2023-03-02T13:48:16;7.35;;;4.68;;
19026;SDS011;9646;52.034;5.554;2023-03-02T13:50:49;7.80;;;5.38;;
19026;SDS011;9646;52.034;5.554;2023-03-02T13:53:17;8.07;;;4.82;;
19026;SDS011;9646;52.034;5.554;2023-03-02T13:55:45;7.18;;;4.07;;
19026;SDS011;9646;52.034;5.554;2023-03-02T13:58:12;8.65;;;4.60;;
19026;SDS011;9646;52.034;5.554;2023-03-02T14:00:42;5.60;;;3.95;;
19026;SDS011;9646;52.034;5.554;2023-03-02T14:03:14;7.60;;;4.32;;
19026;SDS011;9646;52.034;5.554;2023-03-02T14:05:46;8.02;;;4.68;;
19026;SDS011;9646;52.034;5.554;2023-03-02T14:08:13;7.28;;;4.38;;
19026;SDS011;9646;52.034;5.554;2023-03-02T14:10:43;7.75;;;4.43;;
19026;SDS011;9646;52.034;5.554;2023-03-02T14:13:12;5.05;;;3.63;;
19026;SDS011;9646;52.034;5.554;2023-03-02T14:15:40;7.07;;;3.55;;
19026;SDS011;9646;52.034;5.554;2023-03-02T14:18:11;7.45;;;3.70;;
19026;SDS011;9646;52.034;5.554;2023-03-02T14:20:43;6.63;;;3.90;;
19026;SDS011;9646;52.034;5.554;2023-03-02T14:23:10;6.82;;;3.97;;
19026;SDS011;9646;52.034;5.554;2023-03-02T14:25:37;6.15;;;3.97;;
19026;SDS011;9646;52.034;5.554;2023-03-02T14:28:04;8.52;;;4.95;;
19026;SDS011;9646;52.034;5.554;2023-03-02T14:30:31;5.97;;;3.35;;
19026;SDS011;9646;52.034;5.554;2023-03-02T14:32:58;6.70;;;3.35;;
19026;SDS011;9646;52.034;5.554;2023-03-02T14:35:26;6.72;;;4.07;;
19026;SDS011;9646;52.034;5.554;2023-03-02T14:37:54;6.82;;;4.35;;
19026;SDS011;9646;52.034;5.554;2023-03-02T14:40:23;6.55;;;3.75;;
19026;SDS011;9646;52.034;5.554;2023-03-02T14:42:51;5.57;;;3.28;;
19026;SDS011;9646;52.034;5.554;2023-03-02T14:45:18;6.65;;;3.72;;
19026;SDS011;9646;52.034;5.554;2023-03-02T14:47:45;6.15;;;3.63;;
19026;SDS011;9646;52.034;5.554;2023-03-02T14:50:13;6.50;;;4.30;;
19026;SDS011;9646;52.034;5.554;2023-03-02T14:52:43;7.43;;;4.15;;
19026;SDS011;9646;52.034;5.554;2023-03-02T14:55:13;5.60;;;3.25;;
19026;SDS011;9646;52.034;5.554;2023-03-02T14:57:42;5.43;;;4.05;;
19026;SDS011;9646;52.034;5.554;2023-03-02T15:00:11;5.78;;;3.92;;
19026;SDS011;9646;52.034;5.554;2023-03-02T15:02:39;5.00;;;3.35;;
19026;SDS011;9646;52.034;5.554;2023-03-02T15:05:06;6.25;;;3.40;;
19026;SDS011;9646;52.034;5.554;2023-03-02T15:07:33;5.13;;;3.58;;